Time;durP1;ratioP1;P1;durP2;ratioP2;P2;SDS_P1;SDS_P2;PMS_P1;PMS_P2;Temp;Humidity;BMP_temperature;BMP_pressure;BME280_temperature;BME280_humidity;BME280_pressure;Samples;Min_cycle;Max_cycle;Signal;HPM_P1;HPM_P2
2022/06/05 00:00:28;;;;;;;4.63;4.22;;;23.70;99.90;;;;;;4247851;27;20213;-74
2022/06/05 00:02:45;;;;;;;5.82;4.20;;;23.70;99.90;;;;;;4247658;27;20660;-74
2022/06/05 00:04:53;;;;;;;4.93;3.90;;;23.70;99.90;;;;;;4247203;27;20233;-74
2022/06/05 00:07:06;;;;;;;5.60;3.92;;;23.60;99.90;;;;;;4240531;27;20718;-74
2022/06/05 00:09:22;;;;;;;4.30;3.90;;;23.70;99.90;;;;;;4247270;27;21007;-74
2022/06/05 00:11:25;;;;;;;4.30;3.90;;;23.70;99.90;;;;;;4234414;27;20216;-74
2022/06/05 00:13:33;;;;;;;5.07;4.43;;;23.70;99.90;;;;;;4247249;27;20217;-75
2022/06/05 00:15:35;;;;;;;5.30;4.40;;;23.60;99.90;;;;;;4247369;27;20204;-74
2022/06/05 00:17:38;;;;;;;6.05;4.50;;;23.60;99.90;;;;;;4247308;27;20217;-75
2022/06/05 00:19:43;;;;;;;4.60;4.20;;;23.60;99.90;;;;;;4247040;27;20266;-75
2022/06/05 00:21:45;;;;;;;5.22;4.38;;;23.60;99.90;;;;;;4247375;27;20631;-74
2022/06/05 00:23:47;;;;;;;4.97;4.43;;;23.60;99.90;;;;;;4247141;27;20599;-74
2022/06/05 00:25:56;;;;;;;4.93;4.43;;;23.60;99.90;;;;;;4246889;27;20746;-74
2022/06/05 00:28:05;;;;;;;4.75;4.13;;;23.60;99.90;;;;;;4247251;27;20254;-74
2022/06/05 00:30:13;;;;;;;4.10;3.80;;;23.60;99.90;;;;;;4239709;27;20632;-74
2022/06/05 00:32:28;;;;;;;4.55;4.15;;;23.60;99.90;;;;;;4245626;27;20269;-74
2022/06/05 00:34:30;;;;;;;5.03;3.45;;;23.60;99.90;;;;;;4247129;27;20217;-74
2022/06/05 00:36:44;;;;;;;4.63;4.22;;;23.60;99.90;;;;;;4246922;27;20209;-74
2022/06/05 00:38:54;;;;;;;5.47;4.15;;;23.60;99.90;;;;;;4246770;27;20254;-74
2022/06/05 00:41:23;;;;;;;5.03;4.53;;;23.60;99.90;;;;;;4245138;27;20616;-74
2022/06/05 00:43:26;;;;;;;4.45;4.05;;;23.60;99.90;;;;;;4232294;27;20218;-74
2022/06/05 00:45:30;;;;;;;4.13;3.72;;;23.60;99.90;;;;;;4246664;27;20281;-74
2022/06/05 00:47:34;;;;;;;5.47;4.40;;;23.50;99.90;;;;;;4246824;27;20217;-74
2022/06/05 00:49:39;;;;;;;4.43;4.03;;;23.50;99.90;;;;;;4246702;27;20213;-75
2022/06/05 00:51:41;;;;;;;4.75;3.80;;;23.50;99.90;;;;;;4246592;27;20217;-74
2022/06/05 00:53:44;;;;;;;4.65;4.15;;;23.50;99.90;;;;;;4246797;27;20721;-74
2022/06/05 00:55:48;;;;;;;5.25;4.20;;;23.50;99.90;;;;;;4246970;27;20266;-74
2022/06/05 00:57:55;;;;;;;4.22;3.78;;;23.50;99.90;;;;;;4246610;27;20257;-74
2022/06/05 01:00:00;;;;;;;4.50;3.90;;;23.50;99.90;;;;;;4236855;27;20213;-74
2022/06/05 01:02:02;;;;;;;4.55;4.15;;;23.50;99.90;;;;;;4246428;27;20217;-74
2022/06/05 01:04:04;;;;;;;4.70;4.30;;;23.50;99.90;;;;;;4245955;27;20213;-74
2022/06/05 01:06:07;;;;;;;4.35;3.95;;;23.50;99.90;;;;;;4240429;27;20275;-74
2022/06/05 01:08:11;;;;;;;4.63;4.22;;;23.50;99.90;;;;;;4246144;27;20229;-74
2022/06/05 01:10:15;;;;;;;5.07;4.38;;;23.50;99.90;;;;;;4246438;27;20263;-74
2022/06/05 01:12:31;;;;;;;4.53;4.13;;;23.50;99.90;;;;;;4246799;27;20213;-74
2022/06/05 01:14:48;;;;;;;5.63;4.28;;;23.50;99.90;;;;;;4246440;27;20213;-74
2022/06/05 01:16:59;;;;;;;4.35;3.83;;;23.50;99.90;;;;;;4237665;27;20205;-74
2022/06/05 01:19:26;;;;;;;4.93;4.45;;;23.40;99.90;;;;;;4245448;27;20282;-74
2022/06/05 01:21:46;;;;;;;5.55;4.28;;;23.50;99.90;;;;;;4246016;27;20216;-74
2022/06/05 01:24:05;;;;;;;4.75;4.18;;;23.50;99.90;;;;;;4246701;27;20213;-75
2022/06/05 01:26:19;;;;;;;5.05;4.50;;;23.50;99.90;;;;;;4245992;27;20305;-74
2022/06/05 01:28:24;;;;;;;4.75;4.10;;;23.50;99.90;;;;;;4246343;27;20269;-74
2022/06/05 01:30:29;;;;;;;4.97;3.83;;;23.50;99.90;;;;;;4246366;27;20209;-74
2022/06/05 01:32:41;;;;;;;6.10;4.55;;;23.50;99.90;;;;;;4246196;27;20626;-74
2022/06/05 01:34:48;;;;;;;4.25;3.85;;;23.40;99.90;;;;;;4246134;27;20295;-74
2022/06/05 01:36:55;;;;;;;4.30;3.85;;;23.50;99.90;;;;;;4231869;27;20218;-74
2022/06/05 01:39:01;;;;;;;4.40;4.00;;;23.50;99.90;;;;;;4245925;27;20215;-75
2022/06/05 01:41:09;;;;;;;5.13;4.55;;;23.40;99.90;;;;;;4246106;27;20626;-75
2022/06/05 01:43:16;;;;;;;4.32;3.92;;;23.40;99.90;;;;;;4233078;28;20266;-74
2022/06/05 01:45:23;;;;;;;4.40;4.00;;;23.50;99.90;;;;;;4230582;27;20262;-74
2022/06/05 01:47:29;;;;;;;4.03;3.72;;;23.40;99.90;;;;;;4246248;27;20669;-74
2022/06/05 01:49:37;;;;;;;4.35;3.88;;;23.40;99.90;;;;;;4245743;27;20216;-74
2022/06/05 01:51:45;;;;;;;4.50;4.10;;;23.40;99.90;;;;;;4245672;27;20208;-74
2022/06/05 01:53:50;;;;;;;4.75;4.35;;;23.40;99.90;;;;;;4245894;28;20265;-74
2022/06/05 01:55:55;;;;;;;4.40;4.00;;;23.40;99.90;;;;;;4245920;27;20250;-74
2022/06/05 01:58:02;;;;;;;4.47;4.07;;;23.40;99.90;;;;;;4241941;27;20213;-74
2022/06/05 02:00:11;;;;;;;4.70;4.20;;;23.40;99.90;;;;;;4246059;27;20213;-74
2022/06/05 02:02:17;;;;;;;5.40;4.30;;;23.40;99.90;;;;;;4239108;27;20342;-74
2022/06/05 02:04:24;;;;;;;4.72;4.22;;;23.40;99.90;;;;;;4246161;27;20281;-75
2022/06/05 02:06:31;;;;;;;4.85;4.45;;;23.40;99.90;;;;;;4239258;27;20758;-75
2022/06/05 02:08:36;;;;;;;4.43;4.03;;;23.40;99.90;;;;;;4246000;27;20213;-80
2022/06/05 02:10:47;;;;;;;5.97;4.07;;;23.40;99.90;;;;;;4246185;27;20681;-79
2022/06/05 02:12:50;;;;;;;4.35;3.95;;;23.40;99.90;;;;;;4244097;28;20273;-80
2022/06/05 02:14:53;;;;;;;4.45;4.05;;;23.40;99.90;;;;;;4244566;28;20216;-80
2022/06/05 02:16:57;;;;;;;4.30;3.80;;;23.40;99.90;;;;;;4246491;27;20231;-80
2022/06/05 02:19:04;;;;;;;4.72;3.90;;;23.40;99.90;;;;;;4246064;28;20205;-79
2022/06/05 02:21:07;;;;;;;4.22;3.92;;;23.40;99.90;;;;;;4247006;27;20213;-80
2022/06/05 02:23:15;;;;;;;4.35;3.95;;;23.40;99.90;;;;;;4249655;27;20601;-80
2022/06/05 02:25:19;;;;;;;5.13;3.97;;;23.30;99.90;;;;;;4249293;27;20220;-80
2022/06/05 02:27:23;;;;;;;4.53;4.13;;;23.30;99.90;;;;;;4249317;27;20240;-79
2022/06/05 02:29:26;;;;;;;4.85;4.32;;;23.30;99.90;;;;;;4250648;27;20216;-79
2022/06/05 02:31:47;;;;;;;4.57;4.18;;;23.30;99.90;;;;;;4256071;27;20213;-79
2022/06/05 02:34:01;;;;;;;4.30;3.90;;;23.30;99.90;;;;;;4249387;27;20661;-80
2022/06/05 02:36:10;;;;;;;4.10;3.70;;;23.30;99.90;;;;;;4249203;27;20657;-80
2022/06/05 02:38:28;;;;;;;3.83;3.53;;;23.30;99.90;;;;;;4249540;27;20220;-79
2022/06/05 02:40:39;;;;;;;4.35;3.95;;;23.30;99.90;;;;;;4244415;27;20945;-79
2022/06/05 02:42:46;;;;;;;4.60;4.20;;;23.30;99.90;;;;;;4240513;27;20258;-79
2022/06/05 02:44:55;;;;;;;5.45;4.18;;;23.30;99.90;;;;;;4246464;27;20262;-79
2022/06/05 02:47:13;;;;;;;5.05;4.60;;;23.30;99.90;;;;;;4249142;27;20293;-79
2022/06/05 02:49:27;;;;;;;4.63;4.22;;;23.30;99.90;;;;;;4249324;27;20302;-79
2022/06/05 02:51:34;;;;;;;4.38;3.97;;;23.30;99.90;;;;;;4248819;27;20247;-80
2022/06/05 02:53:47;;;;;;;4.40;4.00;;;23.30;99.90;;;;;;4249351;27;20210;-80
2022/06/05 02:55:49;;;;;;;4.35;3.95;;;23.20;99.90;;;;;;4249248;27;20217;-81
2022/06/05 02:57:51;;;;;;;4.65;4.25;;;23.30;99.90;;;;;;4249053;27;20555;-80
2022/06/05 02:59:54;;;;;;;4.32;3.92;;;23.30;99.90;;;;;;4245675;27;20209;-80
2022/06/05 03:04:17;;;;;;;4.47;4.18;;;23.30;99.90;;;;;;4245748;27;20226;-80
2022/06/05 03:06:19;;;;;;;4.72;4.07;;;23.20;99.90;;;;;;4243976;27;20237;-79
2022/06/05 03:08:22;;;;;;;4.90;4.47;;;23.20;99.90;;;;;;4231932;28;20222;-80
2022/06/05 03:10:25;;;;;;;5.13;4.38;;;23.20;99.90;;;;;;4231868;28;20214;-80
2022/06/05 03:12:27;;;;;;;4.30;3.90;;;23.20;99.90;;;;;;4224691;28;20601;-79
2022/06/05 03:14:30;;;;;;;4.13;3.80;;;23.20;99.90;;;;;;4226447;28;20214;-80
2022/06/05 03:16:33;;;;;;;4.40;4.10;;;23.20;99.90;;;;;;4231407;28;20255;-80
2022/06/05 03:18:35;;;;;;;4.35;3.95;;;23.20;99.90;;;;;;4226323;28;20283;-81
2022/06/05 03:20:39;;;;;;;4.45;4.07;;;23.20;99.90;;;;;;4228547;28;20218;-80
2022/06/05 03:22:42;;;;;;;4.45;4.05;;;23.20;99.90;;;;;;4228627;28;20262;-80
2022/06/05 03:24:44;;;;;;;4.78;4.30;;;23.20;99.90;;;;;;4232022;28;20255;-80
2022/06/05 03:26:47;;;;;;;5.28;4.22;;;23.20;99.90;;;;;;4231243;28;20233;-80
2022/06/05 03:28:49;;;;;;;4.75;4.32;;;23.20;99.90;;;;;;4231365;28;20662;-74
2022/06/05 03:30:52;;;;;;;4.40;4.03;;;23.20;99.90;;;;;;4231384;28;20227;-74
2022/06/05 03:32:54;;;;;;;4.85;4.35;;;23.20;99.90;;;;;;4229493;28;20217;-75
2022/06/05 03:34:57;;;;;;;4.10;3.80;;;23.20;99.90;;;;;;4230933;28;20595;-75
2022/06/05 03:37:01;;;;;;;4.47;4.07;;;23.20;99.90;;;;;;4229304;28;20612;-75
2022/06/05 03:39:04;;;;;;;5.03;4.40;;;23.20;99.90;;;;;;4230398;28;20290;-75
2022/06/05 03:41:08;;;;;;;4.55;4.07;;;23.20;99.90;;;;;;4230585;28;20218;-75
2022/06/05 03:43:10;;;;;;;4.68;4.28;;;23.20;99.90;;;;;;4214895;28;20283;-74
2022/06/05 03:45:15;;;;;;;4.30;3.92;;;23.20;99.90;;;;;;4230851;28;20275;-75
2022/06/05 03:47:17;;;;;;;4.90;4.43;;;23.20;99.90;;;;;;4230547;28;20241;-74
2022/06/05 03:49:20;;;;;;;4.47;4.10;;;23.20;99.90;;;;;;4230620;28;20638;-74
2022/06/05 03:51:23;;;;;;;4.55;4.15;;;23.20;99.90;;;;;;4230383;28;20680;-74
2022/06/05 03:53:27;;;;;;;4.57;4.18;;;23.20;99.90;;;;;;4217615;28;20218;-80
2022/06/05 03:55:29;;;;;;;4.72;4.22;;;23.20;99.90;;;;;;4231438;28;21005;-80
2022/06/05 03:57:32;;;;;;;4.47;4.07;;;23.20;99.90;;;;;;4230978;28;20612;-80
2022/06/05 03:59:35;;;;;;;4.47;3.75;;;23.20;99.90;;;;;;4230504;28;20735;-79
2022/06/05 04:01:37;;;;;;;4.28;3.97;;;23.20;99.90;;;;;;4218304;28;20209;-80
2022/06/05 04:03:40;;;;;;;4.65;4.20;;;23.20;99.90;;;;;;4230204;28;20210;-79
2022/06/05 04:05:44;;;;;;;4.60;4.20;;;23.20;99.90;;;;;;4230722;28;20259;-79
2022/06/05 04:07:47;;;;;;;4.43;4.03;;;23.20;99.90;;;;;;4228591;28;20283;-80
2022/06/05 04:09:50;;;;;;;4.38;4.00;;;23.20;99.90;;;;;;4230360;28;20614;-80
2022/06/05 04:11:53;;;;;;;6.03;4.32;;;23.10;99.90;;;;;;4230699;28;20210;-79
2022/06/05 04:13:55;;;;;;;5.05;4.40;;;23.20;99.90;;;;;;4230300;28;20262;-80
2022/06/05 04:15:57;;;;;;;4.45;4.03;;;23.10;99.90;;;;;;4230065;28;20209;-80
2022/06/05 04:18:00;;;;;;;4.82;4.35;;;23.10;99.90;;;;;;4230628;27;20259;-80
2022/06/05 04:20:03;;;;;;;4.55;3.85;;;23.10;99.90;;;;;;4237987;27;20214;-79
2022/06/05 04:22:05;;;;;;;4.60;4.20;;;23.20;99.90;;;;;;4229910;28;20217;-80
2022/06/05 04:24:07;;;;;;;4.32;3.92;;;23.20;99.90;;;;;;4229804;28;20229;-79
2022/06/05 04:26:13;;;;;;;4.38;3.97;;;23.10;99.90;;;;;;4230217;28;20213;-80
2022/06/05 04:28:15;;;;;;;4.40;4.07;;;23.20;99.90;;;;;;4230459;28;20237;-79
2022/06/05 04:30:18;;;;;;;4.55;4.10;;;23.20;99.90;;;;;;4229974;28;20221;-79
2022/06/05 04:32:20;;;;;;;3.88;3.58;;;23.20;99.90;;;;;;4230444;28;20282;-80
2022/06/05 04:34:23;;;;;;;4.72;4.32;;;23.20;99.90;;;;;;4229438;28;20213;-79
2022/06/05 04:36:26;;;;;;;4.60;4.20;;;23.20;99.90;;;;;;4230143;28;20710;-80
2022/06/05 04:38:28;;;;;;;5.22;4.20;;;23.10;99.90;;;;;;4230163;28;20259;-80
2022/06/05 04:40:30;;;;;;;4.72;3.97;;;23.10;99.90;;;;;;4230517;28;20618;-80
2022/06/05 04:42:34;;;;;;;4.43;4.03;;;23.10;99.90;;;;;;4222615;28;20223;-80
2022/06/05 04:44:37;;;;;;;4.15;3.85;;;23.10;99.90;;;;;;4225291;28;20641;-80
2022/06/05 04:46:39;;;;;;;4.43;4.03;;;23.10;99.90;;;;;;4229778;28;20218;-80
2022/06/05 04:48:42;;;;;;;4.22;3.90;;;23.10;99.90;;;;;;4216979;28;20628;-80
2022/06/05 04:50:44;;;;;;;6.28;4.43;;;23.10;99.90;;;;;;4217084;28;20279;-80
2022/06/05 04:52:46;;;;;;;4.70;4.30;;;23.20;99.90;;;;;;4215150;28;20218;-80
2022/06/05 04:54:49;;;;;;;4.57;4.25;;;23.10;99.90;;;;;;4245193;27;20216;-79
2022/06/05 04:56:51;;;;;;;5.97;4.30;;;23.10;99.90;;;;;;4247058;27;20225;-79
2022/06/05 04:58:55;;;;;;;4.22;3.83;;;23.10;99.90;;;;;;4247106;27;20213;-80
2022/06/05 05:00:57;;;;;;;4.85;4.38;;;23.10;99.90;;;;;;4247254;27;20217;-80
2022/06/05 05:02:59;;;;;;;4.32;4.03;;;23.10;99.90;;;;;;4245788;27;20217;-80
2022/06/05 05:05:02;;;;;;;4.30;3.83;;;23.10;99.90;;;;;;4247195;27;20266;-79
2022/06/05 05:07:04;;;;;;;4.45;4.05;;;23.20;99.90;;;;;;4246340;27;20298;-79
2022/06/05 05:09:07;;;;;;;4.22;3.83;;;23.10;99.90;;;;;;4246593;27;20238;-80
2022/06/05 05:11:10;;;;;;;4.15;3.85;;;23.10;99.90;;;;;;4246821;27;20668;-80
2022/06/05 05:13:12;;;;;;;4.68;4.28;;;23.10;99.90;;;;;;4246770;27;20261;-79
2022/06/05 05:15:16;;;;;;;4.60;4.20;;;23.10;99.90;;;;;;4246459;27;20221;-80
2022/06/05 05:17:18;;;;;;;4.40;3.95;;;23.10;99.90;;;;;;4246941;27;20257;-79
2022/06/05 05:19:20;;;;;;;4.32;4.03;;;23.10;99.90;;;;;;4233650;27;20216;-79
2022/06/05 05:21:25;;;;;;;4.85;4.20;;;23.10;99.90;;;;;;4247154;27;20264;-80
2022/06/05 05:23:28;;;;;;;4.50;4.20;;;23.10;99.90;;;;;;4246681;27;20253;-79
2022/06/05 05:25:30;;;;;;;6.22;4.45;;;23.10;99.90;;;;;;4246327;27;20209;-79
2022/06/05 05:27:33;;;;;;;4.72;4.28;;;23.10;99.90;;;;;;4246688;27;20305;-79
2022/06/05 05:29:35;;;;;;;4.05;3.72;;;23.10;99.90;;;;;;4246461;27;20213;-80
2022/06/05 05:31:40;;;;;;;4.60;4.18;;;23.10;99.90;;;;;;4246534;27;20263;-80
2022/06/05 05:33:43;;;;;;;5.07;4.22;;;23.10;99.90;;;;;;4246834;27;20235;-80
2022/06/05 05:35:45;;;;;;;4.50;4.13;;;23.10;99.90;;;;;;4246457;27;20217;-80
2022/06/05 05:37:48;;;;;;;4.93;4.43;;;23.10;99.90;;;;;;4246029;27;20209;-80
2022/06/05 05:42:10;;;;;;;4.25;3.75;;;23.10;99.90;;;;;;4239589;27;20923;-80
2022/06/05 05:44:13;;;;;;;4.28;3.92;;;23.10;99.90;;;;;;4231412;28;20206;-79
2022/06/05 05:46:16;;;;;;;4.93;4.45;;;23.10;99.90;;;;;;4246492;27;20281;-79
2022/06/05 05:48:20;;;;;;;4.55;4.13;;;23.20;99.90;;;;;;4246350;27;20233;-79
2022/06/05 05:50:22;;;;;;;4.25;3.95;;;23.20;99.90;;;;;;4246544;28;20576;-79
2022/06/05 05:52:25;;;;;;;4.60;4.03;;;23.20;99.90;;;;;;4244154;28;20209;-80
2022/06/05 05:54:27;;;;;;;4.70;4.30;;;23.20;99.90;;;;;;4241546;27;20213;-79
2022/06/05 05:56:30;;;;;;;4.22;3.92;;;23.20;99.90;;;;;;4247707;27;20218;-79
2022/06/05 05:58:32;;;;;;;5.10;4.47;;;23.20;99.90;;;;;;4249733;27;20609;-79
2022/06/05 06:00:34;;;;;;;4.40;4.00;;;23.10;99.90;;;;;;4249505;27;20265;-79
2022/06/05 06:02:37;;;;;;;5.35;4.28;;;23.20;99.90;;;;;;4249498;27;20221;-80
2022/06/05 06:04:42;;;;;;;4.47;4.10;;;23.20;99.90;;;;;;4249215;27;20213;-79
2022/06/05 06:06:46;;;;;;;4.70;3.92;;;23.20;99.90;;;;;;4249604;27;20248;-79
2022/06/05 06:08:48;;;;;;;5.03;4.53;;;23.20;99.90;;;;;;4249841;27;20741;-79
2022/06/05 06:10:51;;;;;;;4.28;3.85;;;23.20;99.90;;;;;;4249915;27;20262;-80
2022/06/05 06:12:53;;;;;;;4.30;4.00;;;23.20;99.90;;;;;;4249878;27;20698;-80
2022/06/05 06:14:55;;;;;;;3.97;3.53;;;23.20;99.90;;;;;;4249836;27;20702;-79
2022/06/05 06:16:58;;;;;;;4.40;4.00;;;23.20;99.90;;;;;;4249388;27;20250;-80
2022/06/05 06:19:00;;;;;;;4.78;4.28;;;23.20;99.90;;;;;;4249868;27;20213;-80
2022/06/05 06:21:04;;;;;;;4.80;4.38;;;23.20;99.90;;;;;;4249605;27;20613;-80
2022/06/05 06:23:07;;;;;;;4.70;4.30;;;23.20;99.90;;;;;;4249392;27;20229;-80
2022/06/05 06:25:11;;;;;;;4.97;4.57;;;23.20;99.90;;;;;;4249588;27;20693;-79
2022/06/05 06:27:14;;;;;;;5.43;4.28;;;23.20;99.90;;;;;;4247385;27;20208;-79
2022/06/05 06:29:16;;;;;;;4.20;3.90;;;23.20;99.90;;;;;;4249585;27;20240;-80
2022/06/05 06:31:18;;;;;;;4.18;3.78;;;23.20;99.90;;;;;;4249363;27;20269;-79
2022/06/05 06:33:21;;;;;;;4.28;3.83;;;23.20;99.90;;;;;;4249403;27;20266;-80
2022/06/05 06:35:23;;;;;;;4.82;4.43;;;23.20;99.90;;;;;;4249202;27;20216;-79
2022/06/05 06:37:26;;;;;;;4.47;4.03;;;23.20;99.90;;;;;;4249222;27;20217;-74
2022/06/05 06:39:29;;;;;;;4.75;4.30;;;23.20;99.90;;;;;;4248641;27;20262;-74
2022/06/05 06:41:31;;;;;;;4.72;4.32;;;23.20;99.90;;;;;;4238162;27;20270;-74
2022/06/05 06:43:35;;;;;;;4.10;3.80;;;23.30;99.90;;;;;;4236400;27;20217;-74
2022/06/05 06:45:38;;;;;;;4.30;4.00;;;23.30;99.90;;;;;;4248599;27;20217;-75
2022/06/05 06:47:40;;;;;;;4.40;4.00;;;23.20;99.90;;;;;;4248835;27;20713;-74
2022/06/05 06:49:43;;;;;;;4.18;3.88;;;23.30;99.90;;;;;;4248594;27;20286;-74
2022/06/05 06:51:45;;;;;;;4.32;3.92;;;23.30;99.90;;;;;;4248741;27;20234;-74
2022/06/05 06:53:49;;;;;;;6.13;4.28;;;23.30;99.90;;;;;;4241014;27;20266;-75
2022/06/05 06:55:52;;;;;;;4.40;4.00;;;23.30;99.90;;;;;;4248969;27;20603;-74
2022/06/05 06:57:54;;;;;;;4.15;3.63;;;23.30;99.90;;;;;;4248925;27;20590;-74
2022/06/05 06:59:57;;;;;;;4.05;3.75;;;23.30;99.90;;;;;;4248652;27;20682;-74
2022/06/05 07:01:59;;;;;;;4.78;4.38;;;23.30;99.90;;;;;;4248212;27;20201;-74
2022/06/05 07:04:02;;;;;;;4.68;4.20;;;23.30;99.90;;;;;;4248646;27;20266;-74
2022/06/05 07:06:06;;;;;;;4.30;4.00;;;23.30;99.90;;;;;;4248684;27;20582;-74
2022/06/05 07:08:10;;;;;;;4.78;4.38;;;23.30;99.90;;;;;;4247881;27;20259;-74
2022/06/05 07:10:13;;;;;;;4.88;4.40;;;23.30;99.90;;;;;;4248594;27;20598;-74
2022/06/05 07:12:17;;;;;;;4.47;4.00;;;23.30;99.90;;;;;;4248335;27;20702;-74
2022/06/05 07:14:20;;;;;;;4.63;4.22;;;23.30;99.90;;;;;;4247958;27;20270;-75
2022/06/05 07:16:22;;;;;;;4.55;4.25;;;23.30;99.90;;;;;;4248146;27;20213;-74
2022/06/05 07:18:24;;;;;;;4.80;4.35;;;23.30;99.90;;;;;;4247773;27;20274;-75
2022/06/05 07:20:27;;;;;;;5.35;4.78;;;23.30;99.90;;;;;;4248382;27;20238;-74
2022/06/05 07:22:29;;;;;;;4.70;4.30;;;23.30;99.90;;;;;;4247919;27;20270;-74
2022/06/05 07:24:31;;;;;;;4.95;4.55;;;23.30;99.90;;;;;;4248053;27;20262;-75
2022/06/05 07:26:35;;;;;;;4.57;4.13;;;23.30;99.90;;;;;;4248123;27;20262;-74
2022/06/05 07:28:37;;;;;;;4.60;4.20;;;23.30;99.90;;;;;;4247906;27;20236;-74
2022/06/05 07:30:40;;;;;;;4.57;4.18;;;23.30;99.90;;;;;;4248020;27;20620;-74
2022/06/05 07:32:42;;;;;;;4.47;4.18;;;23.40;99.90;;;;;;4247957;27;20268;-74
2022/06/05 07:34:44;;;;;;;4.63;4.22;;;23.40;99.90;;;;;;4247489;27;20254;-74
2022/06/05 07:36:46;;;;;;;4.38;3.97;;;23.40;99.90;;;;;;4247836;27;20213;-74
2022/06/05 07:38:49;;;;;;;4.70;4.30;;;23.40;99.90;;;;;;4247907;27;20217;-74
2022/06/05 07:40:52;;;;;;;4.55;4.15;;;23.40;99.90;;;;;;4241538;27;20225;-75
2022/06/05 07:42:55;;;;;;;4.57;4.22;;;23.40;99.90;;;;;;4243896;27;20270;-75
2022/06/05 07:44:57;;;;;;;5.03;4.28;;;23.40;99.90;;;;;;4233484;27;20213;-74
2022/06/05 07:47:03;;;;;;;4.60;4.20;;;23.30;99.90;;;;;;4247638;27;20217;-74
2022/06/05 07:49:07;;;;;;;4.60;4.20;;;23.40;99.90;;;;;;4247448;27;20289;-74
2022/06/05 07:55:51;;;;;;;4.30;4.00;;;23.40;99.90;;;;;;4248171;27;20923;-74
2022/06/05 07:57:55;;;;;;;5.20;4.60;;;23.40;99.90;;;;;;4248222;27;20939;-75
2022/06/05 07:59:57;;;;;;;4.32;3.92;;;23.40;99.90;;;;;;4247532;27;20254;-74
2022/06/05 08:02:03;;;;;;;5.18;4.40;;;23.40;99.90;;;;;;4247691;27;20217;-74
2022/06/05 08:04:06;;;;;;;4.35;4.05;;;23.40;99.90;;;;;;4247022;27;20213;-75
2022/06/05 08:06:08;;;;;;;4.40;4.10;;;23.40;99.90;;;;;;4245238;27;20270;-74
2022/06/05 08:08:11;;;;;;;4.90;4.50;;;23.40;99.90;;;;;;4239147;27;20233;-75
2022/06/05 08:10:13;;;;;;;4.55;4.15;;;23.40;99.90;;;;;;4247410;27;20245;-74
2022/06/05 08:12:18;;;;;;;4.97;4.10;;;23.40;99.90;;;;;;4247670;27;20671;-74
2022/06/05 08:14:21;;;;;;;4.63;4.22;;;23.40;99.90;;;;;;4247485;27;20209;-74
2022/06/05 08:16:24;;;;;;;4.50;4.10;;;23.40;99.90;;;;;;4247256;27;20213;-74
2022/06/05 08:18:26;;;;;;;4.70;4.30;;;23.40;99.90;;;;;;4246584;27;20213;-74
2022/06/05 08:20:28;;;;;;;4.93;4.45;;;23.40;99.90;;;;;;4246689;27;20274;-74
2022/06/05 08:22:31;;;;;;;4.50;4.10;;;23.40;99.90;;;;;;4244213;27;20254;-74
2022/06/05 08:24:33;;;;;;;4.90;4.28;;;23.40;99.90;;;;;;4242630;27;20209;-75
2022/06/05 08:26:36;;;;;;;4.53;4.13;;;23.50;99.90;;;;;;4247222;27;20273;-75
2022/06/05 08:28:38;;;;;;;4.68;4.38;;;23.40;99.90;;;;;;4242235;27;20213;-75
2022/06/05 08:30:42;;;;;;;4.95;4.45;;;23.40;99.90;;;;;;4245151;27;20251;-74
2022/06/05 08:32:44;;;;;;;4.97;4.60;;;23.40;99.90;;;;;;4246765;27;20297;-74
2022/06/05 08:34:46;;;;;;;4.60;4.30;;;23.40;99.90;;;;;;4247043;27;20217;-74
2022/06/05 08:41:26;;;;;;;4.15;3.85;;;23.40;99.90;;;;;;4246836;27;20229;-74
2022/06/05 08:41:42;;;;;;;4.60;4.22;;;23.40;99.90;;;;;;4225051;27;20249;-74
2022/06/05 08:43:48;;;;;;;4.55;4.25;;;23.40;99.90;;;;;;4235210;27;20209;-74
2022/06/05 08:45:59;;;;;;;4.57;4.18;;;23.40;99.90;;;;;;4246766;27;20268;-74
2022/06/05 08:48:07;;;;;;;4.70;4.30;;;23.40;99.90;;;;;;4246824;27;20258;-74
2022/06/05 08:50:18;;;;;;;4.50;4.10;;;23.40;99.90;;;;;;4246152;27;20237;-75
2022/06/05 08:52:28;;;;;;;4.80;4.32;;;23.40;99.90;;;;;;4246848;27;20257;-74
2022/06/05 08:54:39;;;;;;;4.60;4.15;;;23.40;99.90;;;;;;4246460;27;20277;-74
2022/06/05 08:56:45;;;;;;;4.68;4.28;;;23.40;99.90;;;;;;4243339;27;20216;-74
2022/06/05 08:58:52;;;;;;;5.00;4.50;;;23.30;99.90;;;;;;4246673;27;20282;-74
2022/06/05 09:01:00;;;;;;;4.90;4.50;;;23.30;99.90;;;;;;4246748;27;20255;-74
2022/06/05 09:03:09;;;;;;;4.60;4.28;;;23.30;99.90;;;;;;4246440;27;20945;-74
2022/06/05 09:05:19;;;;;;;4.95;4.55;;;23.30;99.90;;;;;;4246680;27;20220;-75
2022/06/05 09:07:26;;;;;;;4.75;4.35;;;23.30;99.90;;;;;;4241220;27;20629;-74
2022/06/05 09:09:34;;;;;;;4.72;4.32;;;23.30;99.90;;;;;;4246194;27;20233;-74
2022/06/05 09:11:44;;;;;;;5.05;4.65;;;23.30;99.90;;;;;;4246508;27;20213;-74
2022/06/05 09:13:55;;;;;;;5.47;4.97;;;23.30;99.90;;;;;;4246579;27;20549;-74
2022/06/05 09:16:01;;;;;;;5.70;5.25;;;23.30;99.90;;;;;;4246184;27;20205;-74
2022/06/05 09:18:13;;;;;;;5.28;4.88;;;23.30;99.90;;;;;;4246416;27;20213;-74
2022/06/05 09:20:18;;;;;;;5.00;4.60;;;23.30;99.90;;;;;;4246639;27;20208;-74
2022/06/05 09:22:31;;;;;;;5.38;4.80;;;23.20;99.90;;;;;;4245755;27;20217;-74
2022/06/05 09:24:46;;;;;;;5.18;4.68;;;23.20;99.90;;;;;;4246152;27;20213;-74
2022/06/05 09:26:56;;;;;;;5.30;4.90;;;23.30;99.90;;;;;;4246787;27;20641;-76
2022/06/05 09:29:07;;;;;;;5.05;4.65;;;23.30;99.90;;;;;;4243241;27;20214;-76
2022/06/05 09:31:36;;;;;;;5.32;4.82;;;23.30;99.90;;;;;;4246202;27;20240;-76
2022/06/05 09:33:40;;;;;;;5.90;5.40;;;23.20;99.90;;;;;;4246207;27;20205;-76
2022/06/05 09:35:48;;;;;;;5.35;4.95;;;23.20;99.90;;;;;;4246079;27;20208;-76
2022/06/05 09:37:56;;;;;;;5.70;5.30;;;23.20;99.90;;;;;;4245975;27;20220;-76
2022/06/05 09:40:03;;;;;;;5.35;4.95;;;23.20;99.90;;;;;;4240045;27;20201;-76
2022/06/05 09:42:30;;;;;;;5.40;5.00;;;23.20;99.90;;;;;;4234083;27;20209;-76
2022/06/05 09:44:50;;;;;;;5.63;5.13;;;23.20;99.90;;;;;;4240876;27;20217;-76
2022/06/05 09:46:59;;;;;;;5.85;5.35;;;23.20;99.90;;;;;;4246041;27;20756;-76
2022/06/05 09:49:08;;;;;;;5.40;5.00;;;23.20;99.90;;;;;;4245732;27;20220;-73
2022/06/05 09:51:12;;;;;;;5.65;5.15;;;23.20;99.90;;;;;;4240186;27;20301;-73
2022/06/05 09:53:26;;;;;;;5.15;4.70;;;23.20;99.90;;;;;;4246108;27;20221;-73
2022/06/05 09:55:43;;;;;;;5.15;4.72;;;23.20;99.90;;;;;;4246101;28;20212;-73
2022/06/05 10:00:29;;;;;;;5.65;5.15;;;23.20;99.90;;;;;;4246262;28;20637;-74
2022/06/05 10:02:34;;;;;;;5.75;5.28;;;23.20;99.90;;;;;;4245919;27;20212;-73
2022/06/05 10:04:37;;;;;;;5.18;4.78;;;23.10;99.90;;;;;;4246169;28;20646;-73
2022/06/05 10:06:42;;;;;;;5.32;4.85;;;23.10;99.90;;;;;;4239553;27;20233;-73
2022/06/05 10:08:47;;;;;;;5.43;5.03;;;23.10;99.90;;;;;;4236653;28;20213;-73
2022/06/05 10:10:55;;;;;;;5.22;4.82;;;23.10;99.90;;;;;;4230243;27;20571;-73
2022/06/05 10:13:06;;;;;;;5.75;5.20;;;23.10;99.90;;;;;;4244653;27;20224;-73
2022/06/05 10:15:23;;;;;;;5.75;4.93;;;23.10;99.90;;;;;;4246263;27;20250;-76
2022/06/05 10:17:42;;;;;;;5.70;5.20;;;23.10;99.90;;;;;;4237997;27;20243;-76
2022/06/05 10:19:59;;;;;;;5.20;4.80;;;23.10;99.90;;;;;;4245258;27;20278;-76
2022/06/05 10:22:09;;;;;;;5.88;5.38;;;23.10;99.90;;;;;;4245753;28;20614;-76
2022/06/05 10:24:27;;;;;;;5.75;5.25;;;23.10;99.90;;;;;;4245788;27;20245;-76
2022/06/05 10:26:33;;;;;;;5.32;4.90;;;23.10;99.90;;;;;;4245677;27;20234;-76
2022/06/05 10:28:40;;;;;;;5.30;4.90;;;23.10;99.90;;;;;;4233682;28;20217;-76
2022/06/05 10:30:55;;;;;;;5.03;4.63;;;23.10;99.90;;;;;;4245355;27;20568;-73
2022/06/05 10:33:03;;;;;;;5.30;4.90;;;23.00;99.90;;;;;;4245814;28;20266;-73
2022/06/05 10:35:14;;;;;;;5.63;5.13;;;23.00;99.90;;;;;;4245508;28;20324;-76
2022/06/05 10:37:23;;;;;;;5.50;5.05;;;23.10;99.90;;;;;;4245541;27;20217;-76
2022/06/05 10:39:34;;;;;;;5.28;4.88;;;23.10;99.90;;;;;;4245736;28;20626;-76
2022/06/05 10:41:40;;;;;;;5.40;5.00;;;23.00;99.90;;;;;;4245388;27;20278;-76
2022/06/05 10:43:44;;;;;;;5.60;5.18;;;23.10;99.90;;;;;;4237072;27;20209;-76
2022/06/05 10:45:52;;;;;;;5.75;5.35;;;23.10;99.90;;;;;;4241179;27;20214;-76
2022/06/05 10:48:10;;;;;;;5.80;5.40;;;23.10;99.90;;;;;;4242639;27;20254;-76
2022/06/05 10:50:19;;;;;;;5.20;4.80;;;23.00;99.90;;;;;;4243884;27;20542;-76
2022/06/05 10:52:30;;;;;;;5.60;5.10;;;23.00;99.90;;;;;;4245182;27;20225;-74
2022/06/05 10:54:39;;;;;;;5.50;5.10;;;23.10;99.90;;;;;;4248596;27;20286;-74
2022/06/05 10:56:48;;;;;;;5.43;5.00;;;23.00;99.90;;;;;;4244973;27;20209;-74
2022/06/05 10:58:55;;;;;;;5.28;4.88;;;23.00;99.90;;;;;;4249044;27;20628;-73
2022/06/05 11:01:04;;;;;;;5.90;5.30;;;23.00;99.90;;;;;;4248874;27;20205;-73
2022/06/05 11:03:21;;;;;;;6.10;5.10;;;23.10;99.90;;;;;;4248327;27;20883;-73
2022/06/05 11:05:36;;;;;;;5.57;5.07;;;23.10;99.90;;;;;;4240765;27;20328;-73
2022/06/05 11:07:53;;;;;;;5.47;4.97;;;23.00;99.90;;;;;;4248222;27;20293;-73
2022/06/05 11:10:03;;;;;;;5.60;5.10;;;23.00;99.90;;;;;;4248241;27;20282;-73